Innisfail, Canada
Current Conditions -  °F | °C
As of 6:00 PM on Thursday 27 Nov 2014 (Local Time) from CYQF Reporting Station
Light Snow Light Snow  
Wind Chill: -10°   Ceiling: 2000
Heat Index:   Visibility: 0.75mi
Dew Point:   Wind: 14mph
Humidity: 85%   Direction: 20°NNE
Pressure: 29.83"   Gusts: NA
Location:  52.03°N, 113.95°W
Report Text: CYQF 280100Z 02012KT 3/4SM -SN OVC020 M14/M16 A2983 RMK SN3SC5 SLP161
Loading
Personal Weather Stations






























Interactive Weather Map New forecast layout! Learn more

10-Day Weather Forecast

Advertisements
Track Severe Weather on mobile